createdAt,value
2019-01-22T05:49:22.133Z,108.57
2019-01-22T05:51:58.363Z,105.63
2019-01-22T05:54:52.520Z,117.65
2019-01-22T05:57:23.900Z,120.33
2019-01-22T06:00:02.557Z,121.92
2019-01-22T06:02:35.777Z,116.28
2019-01-22T06:05:41.131Z,110.17
2019-01-22T06:08:23.432Z,115.22
2019-01-22T06:11:08.564Z,113.50
2019-01-22T06:14:01.559Z,117.05
2019-01-22T06:17:08.677Z,118.72
2019-01-22T06:20:17.841Z,116.25
2019-01-22T06:23:15.051Z,116.93
2019-01-22T06:26:02.585Z,111.20
2019-01-22T06:28:52.648Z,118.00
2019-01-22T06:31:28.788Z,117.00
2019-01-22T06:34:05.000Z,117.95
2019-01-22T06:36:56.539Z,113.47
2019-01-22T06:39:32.709Z,113.83
2019-01-22T06:42:27.523Z,111.83
2019-01-22T06:45:18.715Z,111.88
2019-01-22T06:47:54.907Z,105.72
2019-01-22T06:50:48.213Z,105.97
2019-01-22T06:53:21.417Z,114.12
2019-01-22T06:56:06.660Z,119.57
2019-01-22T06:58:48.895Z,109.07
2019-01-22T07:01:38.901Z,110.30
2019-01-22T07:04:12.128Z,110.88
2019-01-22T07:06:54.335Z,116.82
2019-01-22T07:09:27.615Z,110.52
2019-01-22T07:12:12.903Z,113.90
2019-01-22T07:15:02.711Z,113.25
2019-01-22T07:17:55.623Z,108.03
2019-01-22T07:21:03.874Z,107.63
2019-01-22T07:24:03.034Z,108.40
2019-01-22T07:26:51.417Z,102.97
2019-01-22T07:29:36.803Z,104.10
2019-01-22T07:32:12.568Z,109.37
2019-01-22T07:35:02.745Z,115.90
2019-01-22T07:37:38.938Z,110.80
2019-01-22T07:40:12.136Z,110.35
2019-01-22T07:43:06.722Z,107.12
2019-01-22T07:45:48.998Z,100.07
2019-01-22T07:48:22.223Z,104.45
2019-01-22T07:51:10.608Z,101.05
2019-01-22T07:53:56.178Z,97.05
2019-01-22T07:56:59.830Z,97.70
2019-01-22T07:59:51.284Z,103.67
2019-01-22T08:02:39.039Z,103.55
2019-01-22T08:05:25.747Z,98.75
2019-01-22T08:08:12.738Z,100.50
2019-01-22T08:11:05.567Z,94.77
2019-01-22T08:13:50.751Z,118.55
2019-01-22T08:16:46.819Z,59.38
2019-01-22T08:19:22.872Z,72.35
2019-01-22T08:22:22.737Z,83.82
2019-01-22T08:25:11.373Z,88.82
2019-01-22T08:27:59.820Z,94.25
2019-01-22T08:30:41.474Z,93.45
2019-01-22T08:33:14.701Z,87.88
2019-01-22T08:36:00.121Z,87.42
2019-01-22T08:38:33.433Z,101.05
2019-01-22T08:41:09.592Z,91.10
2019-01-22T08:43:45.782Z,95.62
2019-01-22T08:46:35.684Z,87.10
2019-01-22T08:49:08.911Z,87.55
2019-01-22T08:51:56.756Z,91.20
2019-01-22T08:54:38.977Z,95.17
2019-01-22T08:57:20.715Z,98.62
2019-01-22T08:59:56.487Z,90.03
2019-01-22T09:02:49.673Z,90.80
2019-01-22T09:05:48.810Z,89.00
2019-01-22T09:08:30.991Z,93.82
2019-01-22T09:11:22.073Z,89.58
2019-01-22T09:13:58.357Z,89.03
2019-01-22T09:16:43.802Z,91.57
2019-01-22T09:19:35.202Z,94.52
2019-01-22T09:22:32.703Z,92.35
2019-01-22T09:25:17.862Z,78.60
2019-01-22T09:27:59.778Z,80.57
2019-01-22T09:30:41.947Z,80.00
2019-01-22T09:33:24.069Z,74.60
2019-01-22T09:36:06.200Z,77.55
2019-01-22T09:38:36.538Z,81.10
2019-01-22T09:41:06.592Z,73.97
2019-01-22T09:43:36.762Z,76.60
2019-01-22T09:46:06.980Z,75.65
2019-01-22T09:48:37.084Z,80.53
2019-01-22T09:51:07.164Z,73.47
2019-01-22T09:53:37.577Z,75.90
2019-01-22T09:56:07.636Z,69.58
2019-01-22T09:58:37.731Z,76.67
2019-01-22T10:01:34.997Z,75.10
2019-01-22T10:04:24.098Z,71.72
2019-01-22T10:07:13.647Z,70.10
2019-01-22T10:10:02.303Z,72.10
2019-01-22T10:12:51.326Z,75.10
2019-01-22T10:15:40.183Z,67.87
2019-01-22T10:18:28.751Z,68.45
2019-01-22T10:21:17.832Z,71.95
2019-01-22T10:24:06.590Z,72.12
2019-01-22T10:26:55.342Z,71.53
2019-01-22T10:29:44.958Z,74.30
2019-01-22T10:32:34.014Z,65.10
2019-01-22T10:35:22.595Z,67.95
2019-01-22T10:38:11.330Z,66.33
2019-01-22T10:41:00.105Z,70.75
2019-01-22T10:43:49.017Z,63.80
2019-01-22T10:46:37.783Z,60.03
2019-01-22T10:49:26.834Z,64.55
2019-01-22T10:52:15.674Z,60.73
2019-01-22T10:55:06.524Z,63.17
2019-01-22T10:57:55.454Z,62.62
2019-01-22T11:00:44.087Z,63.10
2019-01-22T11:03:32.864Z,61.18
2019-01-22T11:06:21.399Z,60.10
2019-01-22T11:09:10.008Z,66.33
2019-01-22T11:11:58.743Z,60.28
2019-01-22T11:14:47.297Z,58.23
2019-01-22T11:17:36.097Z,57.80
2019-01-22T11:20:27.302Z,60.58
2019-01-22T11:23:16.197Z,57.67
2019-01-22T11:26:06.651Z,55.20
2019-01-22T11:28:56.359Z,60.03
2019-01-22T11:31:45.621Z,61.70
2019-01-22T11:34:34.541Z,53.60
2019-01-22T11:37:23.223Z,53.50
2019-01-22T11:40:18.220Z,60.20
2019-01-22T11:43:07.179Z,55.30
2019-01-22T11:45:55.996Z,52.10
2019-01-22T11:48:44.856Z,51.02
2019-01-22T11:51:33.473Z,49.35
2019-01-22T11:54:21.938Z,48.25
2019-01-22T11:57:10.775Z,53.92
2019-01-22T11:59:59.392Z,48.00
2019-01-22T12:02:49.211Z,47.23
2019-01-22T12:05:38.871Z,46.90
2019-01-22T12:08:27.730Z,48.75
2019-01-22T12:11:16.324Z,45.38
2019-01-22T12:14:05.033Z,45.98
2019-01-22T12:16:53.577Z,45.83
2019-01-22T12:19:42.931Z,46.10
2019-01-22T12:22:31.687Z,44.33
2019-01-22T12:25:20.627Z,45.50
2019-01-22T12:28:09.442Z,48.75
2019-01-22T12:30:59.438Z,42.93
2019-01-22T12:33:48.224Z,47.15
2019-01-22T12:36:37.195Z,41.53
2019-01-22T12:39:25.730Z,56.48
2019-01-22T12:42:14.623Z,42.45
2019-01-22T12:45:03.295Z,56.30
2019-01-22T12:47:51.823Z,46.92
2019-01-22T12:50:40.712Z,39.70
2019-01-22T12:53:29.367Z,43.80
2019-01-22T12:56:18.191Z,39.55
2019-01-22T12:59:06.958Z,37.65
2019-01-22T13:01:55.712Z,37.03
2019-01-22T13:04:44.802Z,39.85
2019-01-22T13:07:33.743Z,33.50
2019-01-22T13:10:22.577Z,38.38
2019-01-22T13:13:11.325Z,98.15
2019-01-22T13:16:00.311Z,46.95
2019-01-22T13:18:49.150Z,38.58
2019-01-22T13:21:37.611Z,34.65
2019-01-22T13:24:26.689Z,37.75
2019-01-22T13:27:15.571Z,38.80
2019-01-22T13:30:07.408Z,40.05
2019-01-22T13:32:56.016Z,35.80
2019-01-22T13:35:45.094Z,33.92
2019-01-22T13:38:33.649Z,34.08
2019-01-22T13:41:22.535Z,37.75
2019-01-22T13:44:11.291Z,69.22
2019-01-22T13:46:59.993Z,50.20
2019-01-22T13:49:48.722Z,37.60
2019-01-22T13:52:37.292Z,37.78
2019-01-22T13:55:28.455Z,37.25
2019-01-22T13:58:17.003Z,37.05
2019-01-22T14:01:06.106Z,39.38
2019-01-22T14:03:54.898Z,38.80
2019-01-22T14:06:43.883Z,35.83
2019-01-22T14:09:32.272Z,35.08
2019-01-22T14:12:20.939Z,99.47
2019-01-22T14:15:18.579Z,37.20
2019-01-22T14:18:07.739Z,35.65
2019-01-22T14:20:56.506Z,40.38
2019-01-22T14:23:45.480Z,41.02
2019-01-22T14:26:34.307Z,56.37
2019-01-22T14:29:23.494Z,38.08
2019-01-22T14:32:11.963Z,41.88
2019-01-22T14:35:00.769Z,38.25
2019-01-22T14:37:49.577Z,40.40
2019-01-22T14:40:38.801Z,38.40
2019-01-22T14:43:28.004Z,37.90
2019-01-22T14:46:16.671Z,35.20
2019-01-22T14:49:05.239Z,41.37
2019-01-22T14:51:54.221Z,39.63
2019-01-22T14:54:43.206Z,41.20
2019-01-22T14:57:33.021Z,42.90
2019-01-22T15:00:26.680Z,37.58
2019-01-22T15:03:15.595Z,45.75
2019-01-22T15:06:04.828Z,41.80
2019-01-22T15:08:53.599Z,41.85
2019-01-22T15:11:42.070Z,150.75
2019-01-22T15:14:31.238Z,46.20
2019-01-22T15:17:20.048Z,41.85
2019-01-22T15:20:12.049Z,39.42
2019-01-22T15:23:00.867Z,43.15
2019-01-22T15:25:49.377Z,42.00
2019-01-22T15:28:38.124Z,44.60
2019-01-22T15:31:26.979Z,45.83
2019-01-22T15:34:15.514Z,47.38
2019-01-22T15:37:04.422Z,45.92
2019-01-22T15:39:56.484Z,49.05
2019-01-22T15:42:43.401Z,46.88
2019-01-22T15:45:32.061Z,46.40
2019-01-22T15:48:21.510Z,45.83
2019-01-22T15:51:10.983Z,49.38
2019-01-22T15:54:00.150Z,48.75
2019-01-22T15:56:49.925Z,50.48
2019-01-22T15:59:39.294Z,55.40
2019-01-22T16:02:28.461Z,55.30
2019-01-22T16:05:18.856Z,56.63
2019-01-22T16:08:07.713Z,55.73
2019-01-22T16:10:56.877Z,54.45
2019-01-22T16:13:46.451Z,61.45
2019-01-22T16:16:35.719Z,59.40
2019-01-22T16:19:25.395Z,55.25
2019-01-22T16:22:14.559Z,56.05
2019-01-22T16:25:03.828Z,53.17
2019-01-22T16:27:52.783Z,58.73
2019-01-22T16:30:41.901Z,57.38
2019-01-22T16:33:30.808Z,60.45
2019-01-22T16:36:20.075Z,63.75
2019-01-22T16:39:09.060Z,63.05
2019-01-22T16:41:59.636Z,61.35
2019-01-22T16:44:49.765Z,67.92
2019-01-22T16:47:38.965Z,64.87
2019-01-22T16:50:29.671Z,62.35
2019-01-22T16:53:18.893Z,72.60
2019-01-22T16:56:07.919Z,66.37
2019-01-22T16:58:57.084Z,71.42
2019-01-22T17:01:46.143Z,63.85
2019-01-22T17:04:35.509Z,66.10
2019-01-22T17:07:24.473Z,70.32
2019-01-22T17:10:16.811Z,64.65
2019-01-22T17:13:05.873Z,62.55
2019-01-22T17:15:55.859Z,65.70
2019-01-22T17:18:44.919Z,66.33
2019-01-22T17:21:35.622Z,76.15
2019-01-22T17:24:26.324Z,66.90
2019-01-22T17:27:15.593Z,63.20
2019-01-22T17:30:08.138Z,64.40
2019-01-22T17:33:02.725Z,64.67
2019-01-22T17:35:52.812Z,67.90
2019-01-22T17:38:43.107Z,63.00
2019-01-22T17:41:33.445Z,66.12
2019-01-22T17:44:23.172Z,67.67
2019-01-22T17:47:15.725Z,62.20
2019-01-22T17:50:15.121Z,69.47
2019-01-22T17:53:07.560Z,70.70
2019-01-22T17:55:57.855Z,69.03
2019-01-22T17:58:46.917Z,70.28
2019-01-22T18:01:36.334Z,69.10
2019-01-22T18:04:25.963Z,68.17
2019-01-22T18:07:16.770Z,62.40
2019-01-22T18:10:11.012Z,68.12
2019-01-22T18:13:00.782Z,70.40
2019-01-22T18:15:52.144Z,71.85
2019-01-22T18:18:45.964Z,70.25
2019-01-22T18:21:32.317Z,68.30
2019-01-22T18:24:22.764Z,67.00
2019-01-22T18:27:20.776Z,65.30
2019-01-22T18:30:18.660Z,60.65
2019-01-22T18:33:10.338Z,60.55
2019-01-22T18:35:59.547Z,63.48
2019-01-22T18:38:48.971Z,68.07
2019-01-22T18:41:38.078Z,62.50
2019-01-22T18:44:28.310Z,62.83
2019-01-22T18:47:17.848Z,64.45
2019-01-22T18:50:19.578Z,64.95
2019-01-22T18:53:08.718Z,59.88
2019-01-22T18:55:59.587Z,67.92
2019-01-22T18:58:50.628Z,61.90
2019-01-22T19:01:41.774Z,63.17
2019-01-22T19:04:32.492Z,62.35
2019-01-22T19:07:23.557Z,64.53
2019-01-22T19:10:18.142Z,65.83
2019-01-22T19:13:08.838Z,72.35
2019-01-22T19:15:58.204Z,69.17
2019-01-22T19:18:51.608Z,61.58
2019-01-22T19:21:43.728Z,64.60
2019-01-22T19:24:34.205Z,67.17
2019-01-22T19:27:24.558Z,64.45
2019-01-22T19:30:16.643Z,71.40
2019-01-22T19:33:08.536Z,72.53
2019-01-22T19:36:01.356Z,66.72
2019-01-22T19:38:51.037Z,67.65
2019-01-22T19:41:41.063Z,72.72
2019-01-22T19:44:32.806Z,69.67
2019-01-22T19:47:22.423Z,70.32
2019-01-22T19:50:14.819Z,71.95
2019-01-22T19:53:05.957Z,67.75
2019-01-22T19:55:55.958Z,69.05
2019-01-22T19:58:45.335Z,77.37
2019-01-22T20:01:36.245Z,78.55
2019-01-22T20:04:25.693Z,77.35
2019-01-22T20:07:15.641Z,76.90
2019-01-22T20:10:09.647Z,76.17
2019-01-22T20:12:59.958Z,75.10
2019-01-22T20:15:50.863Z,78.28
2019-01-22T20:18:41.565Z,78.37
2019-01-22T20:21:30.934Z,83.27
2019-01-22T20:24:21.717Z,91.42
2019-01-22T20:28:46.441Z,86.67
2019-01-22T20:31:13.898Z,86.67
2019-01-22T20:33:45.971Z,80.77
2019-01-22T20:39:25.827Z,89.15
2019-01-22T20:41:57.889Z,88.42
2019-01-22T20:44:30.059Z,86.22
2019-01-22T20:47:01.198Z,85.32
2019-01-22T20:49:31.830Z,84.92
2019-01-22T20:52:02.199Z,89.52
2019-01-22T20:54:32.683Z,80.42
2019-01-22T20:57:03.212Z,85.47
2019-01-22T21:01:43.888Z,83.82
2019-01-22T21:05:51.187Z,88.15
2019-01-22T21:09:56.743Z,85.15
2019-01-22T21:14:02.191Z,85.50
2019-01-22T21:18:07.645Z,89.35
2019-01-22T21:22:13.098Z,87.15
2019-01-22T21:26:18.549Z,93.37
2019-01-22T21:30:27.280Z,101.30
2019-01-22T21:34:32.751Z,113.57
2019-01-22T21:38:38.226Z,109.57
2019-01-22T21:42:43.844Z,127.42
2019-01-22T21:46:49.295Z,123.22
2019-01-22T21:50:55.366Z,121.82
2019-01-22T21:55:00.817Z,136.68
2019-01-22T21:59:06.380Z,130.07
2019-01-22T22:03:11.825Z,141.50
2019-01-22T22:07:17.175Z,145.22
2019-01-22T22:11:22.831Z,151.27
2019-01-22T22:15:28.385Z,148.35
2019-01-22T22:19:33.840Z,154.45
2019-01-22T22:23:39.190Z,159.37
2019-01-22T22:27:45.460Z,160.52
2019-01-22T22:31:51.836Z,163.60
2019-01-22T22:35:57.391Z,150.62
2019-01-22T22:40:02.948Z,156.40
2019-01-22T22:44:08.298Z,148.68
2019-01-22T22:48:13.749Z,160.88
2019-01-22T22:52:19.108Z,147.43
2019-01-22T22:56:24.450Z,144.40
2019-01-22T23:00:36.457Z,140.90
2019-01-22T23:04:43.124Z,142.45
2019-01-22T23:08:48.193Z,139.62
2019-01-22T23:12:53.302Z,145.07
2019-01-22T23:16:58.411Z,153.15
2019-01-22T23:21:03.482Z,150.47
2019-01-22T23:25:08.593Z,138.62
2019-01-22T23:29:13.674Z,144.53
2019-01-22T23:33:18.796Z,148.22
2019-01-22T23:37:23.927Z,148.57
2019-01-22T23:41:29.024Z,139.90
2019-01-22T23:45:35.762Z,132.18
2019-01-22T23:49:40.830Z,136.05
2019-01-22T23:53:45.936Z,131.45
2019-01-22T23:57:51.084Z,129.85
